Time;durP1;ratioP1;P1;durP2;ratioP2;P2;SDS_P1;SDS_P2;PMS_P1;PMS_P2;Temp;Humidity;BMP_temperature;BMP_pressure;BME280_temperature;BME280_humidity;BME280_pressure;Samples;Min_cycle;Max_cycle;Signal;HPM_P1;HPM_P2
2022/08/12 00:44:29;;;;;;;14.45;12.75;;;;;;;21.66;77.28;99363.56;5074534;28;20071;-71
2022/08/12 00:46:59;;;;;;;18.70;12.93;;;;;;;21.61;77.39;99369.66;5073951;28;20021;-71
2022/08/12 00:49:25;;;;;;;;;;;;;;;21.62;77.48;99368.44;5074716;28;20038;-71
2022/08/12 00:52:05;;;;;;;14.50;13.00;;;;;;;21.38;78.44;99365.28;5056115;28;19915;-71
2022/08/12 00:54:35;;;;;;;19.40;13.45;;;;;;;21.41;78.49;99370.13;5072923;28;20036;-71
2022/08/12 00:57:04;;;;;;;13.73;12.35;;;;;;;21.44;78.25;99377.03;5073597;28;20496;-71
2022/08/12 00:59:31;;;;;;;16.05;12.38;;;;;;;21.55;78.21;99377.81;5073893;28;20083;-71
2022/08/12 01:02:00;;;;;;;12.70;11.43;;;;;;;21.44;78.22;99383.53;5055289;28;20501;-71
2022/08/12 01:12:42;;;;;;;14.75;11.63;;;;;;;21.78;75.95;99392.78;5073953;28;20620;-71
2022/08/12 01:15:12;;;;;;;14.82;11.63;;;;;;;21.77;75.44;99383.41;5073651;28;20029;-71
2022/08/12 01:17:41;;;;;;;15.07;10.80;;;;;;;21.81;75.57;99383.41;5055586;28;20089;-71
2022/08/12 01:20:14;;;;;;;17.23;12.38;;;;;;;21.61;77.18;99375.34;5054787;28;20461;-71
2022/08/12 01:23:19;;;;;;;14.55;11.95;;;;;;;21.60;76.89;99380.22;5055139;28;20040;-71
2022/08/12 01:25:48;;;;;;;14.20;12.75;;;;;;;21.70;76.65;99372.09;5073675;28;20025;-71
2022/08/12 01:28:16;;;;;;;19.23;14.15;;;;;;;21.73;77.83;99374.91;5071668;28;20090;-71
2022/08/12 01:30:43;;;;;;;18.73;14.77;;;;;;;21.60;78.33;99374.53;5055550;28;20120;-71
2022/08/12 01:33:15;;;;;;;23.95;14.65;;;;;;;21.59;78.37;99355.84;5054447;28;20036;-71
2022/08/12 01:35:53;;;;;;;16.83;15.07;;;;;;;21.58;78.13;99370.47;5055170;28;20113;-71
2022/08/12 01:38:21;;;;;;;20.90;15.18;;;;;;;21.65;77.77;99359.06;5073150;28;20024;-71
2022/08/12 01:40:50;;;;;;;17.38;15.30;;;;;;;21.65;77.93;99364.75;5054953;28;20028;-71
2022/08/12 01:43:20;;;;;;;18.40;15.90;;;;;;;21.58;77.52;99359.91;5073104;28;20056;-71
2022/08/12 01:46:21;;;;;;;18.08;14.98;;;;;;;21.66;76.77;99359.84;5054182;28;20453;-71
2022/08/12 01:49:09;;;;;;;18.10;15.50;;;;;;;21.70;76.12;99363.53;5053058;28;20064;-71
2022/08/12 01:51:41;;;;;;;17.38;15.02;;;;;;;21.62;77.91;99362.75;5053162;28;20029;-71
2022/08/12 01:54:16;;;;;;;21.40;16.58;;;;;;;21.64;77.83;99354.59;5052985;28;20029;-71
2022/08/12 01:56:57;;;;;;;22.90;17.15;;;;;;;21.19;79.22;99352.34;5052797;28;20089;-71
2022/08/12 02:02:25;;;;;;;26.10;18.63;;;;;;;19.95;85.32;99353.56;5068292;28;20634;-71
2022/08/12 02:11:23;;;;;;;20.63;17.83;;;;;;;20.32;85.27;99341.84;5071128;28;20047;-71
2022/08/12 02:14:01;;;;;;;21.02;17.27;;;;;;;20.33;83.65;99343.47;5072662;28;20028;-71
2022/08/12 02:16:29;;;;;;;21.52;16.15;;;;;;;20.66;82.25;99345.50;5053674;28;20119;-71
2022/08/12 02:19:09;;;;;;;22.50;16.35;;;;;;;20.76;81.58;99350.38;5072576;28;20028;-71
2022/08/12 02:21:34;;;;;;;22.23;18.20;;;;;;;20.82;80.96;99360.13;5072364;28;20025;-71
2022/08/12 02:24:02;;;;;;;25.45;19.27;;;;;;;20.59;81.24;99352.81;5063479;28;20376;-71
2022/08/12 02:26:31;;;;;;;20.42;17.65;;;;;;;20.51;82.41;99354.00;5072357;28;20475;-71
2022/08/12 02:28:58;;;;;;;21.77;17.90;;;;;;;20.64;82.58;99359.31;5072234;28;20086;-71
2022/08/12 02:31:26;;;;;;;24.80;17.00;;;;;;;20.69;82.43;99361.72;5071247;28;20444;-71
2022/08/12 02:33:53;;;;;;;20.08;16.17;;;;;;;20.58;82.60;99362.53;5071952;28;20456;-71
2022/08/12 02:36:18;;;;;;;19.95;15.93;;;;;;;20.38;83.08;99358.47;5072146;28;20055;-71
2022/08/12 02:38:44;;;;;;;28.23;17.67;;;;;;;20.48;83.18;99366.19;5053607;28;20102;-71
2022/08/12 02:41:11;;;;;;;19.25;15.38;;;;;;;20.69;81.57;99362.53;5072042;28;20032;-71
2022/08/12 02:43:43;;;;;;;18.70;15.85;;;;;;;20.74;82.01;99364.16;5070734;28;20039;-71
2022/08/12 02:46:11;;;;;;;20.27;17.58;;;;;;;20.65;82.25;99350.38;5054019;28;20111;-71
2022/08/12 02:48:45;;;;;;;29.50;19.52;;;;;;;20.37;83.65;99359.69;5053932;28;20024;-71
2022/08/12 02:51:15;;;;;;;26.35;19.73;;;;;;;20.08;85.25;99363.31;5054015;28;20074;-71
2022/08/12 02:53:43;;;;;;;25.60;19.45;;;;;;;19.82;87.52;99378.66;5071863;28;20028;-71
2022/08/12 02:56:11;;;;;;;27.15;21.02;;;;;;;19.50;88.01;99363.94;5071721;28;20119;-71
2022/08/12 02:58:37;;;;;;;26.48;22.98;;;;;;;19.17;91.18;99374.28;5070512;28;20047;-71
2022/08/12 03:01:08;;;;;;;28.45;22.27;;;;;;;19.01;92.77;99376.63;5069146;28;20032;-71
2022/08/12 03:03:34;;;;;;;25.73;20.33;;;;;;;19.01;92.68;99382.31;5053413;28;20033;-71
2022/08/12 03:06:20;;;;;;;26.67;21.27;;;;;;;19.07;92.41;99380.75;5052495;28;20052;-72
2022/08/12 03:08:47;;;;;;;24.65;20.85;;;;;;;18.93;92.91;99381.41;5050710;28;20033;-72
2022/08/12 03:11:20;;;;;;;35.38;21.13;;;;;;;18.78;94.08;99387.00;5066679;28;20039;-71
2022/08/12 03:13:51;;;;;;;38.00;21.77;;;;;;;18.75;94.04;99389.78;5053261;28;20055;-69
2022/08/12 03:16:19;;;;;;;42.78;22.88;;;;;;;18.63;95.30;99388.06;5071732;28;20085;-71
2022/08/12 03:18:45;;;;;;;33.92;20.75;;;;;;;18.78;95.26;99381.31;5071524;28;20028;-70
2022/08/12 03:21:12;;;;;;;31.90;19.08;;;;;;;19.08;93.06;99388.03;5072006;28;20363;-71
2022/08/12 03:23:43;;;;;;;34.97;22.08;;;;;;;19.08;92.35;99388.03;5071725;28;20032;-69
2022/08/12 03:26:19;;;;;;;47.90;22.05;;;;;;;19.21;92.42;99385.66;5053761;28;20094;-70
2022/08/12 03:28:57;;;;;;;28.75;23.08;;;;;;;19.12;92.18;99393.69;5052303;28;20507;-70
2022/08/12 03:31:28;;;;;;;24.75;22.05;;;;;;;19.25;92.09;99382.84;5071725;28;20025;-71
2022/08/12 03:34:08;;;;;;;29.45;23.63;;;;;;;19.32;91.41;99380.88;5071500;28;20035;-70
2022/08/12 03:36:35;;;;;;;;;;;;;;;19.41;90.52;99388.22;5071766;28;20040;-69
2022/08/12 03:42:15;;;;;;;27.15;20.17;;;;;;;19.64;89.24;99393.56;5068598;28;20071;-71
2022/08/12 04:01:56;;;;;;;28.85;20.92;;;;;;;19.92;85.27;99377.88;5067737;28;20514;-70
2022/08/12 04:04:34;;;;;;;21.80;15.20;;;;;;;19.80;85.87;99381.88;5064204;28;20021;-70
2022/08/12 04:07:02;;;;;;;20.73;17.85;;;;;;;19.55;87.45;99391.09;5068468;28;20021;-70
2022/08/12 04:09:28;;;;;;;19.77;16.15;;;;;;;19.32;87.87;99383.69;5052067;28;20024;-70
2022/08/12 04:14:39;;;;;;;21.85;15.60;;;;;;;19.24;87.44;99396.19;5070779;28;20108;-72
2022/08/12 04:17:07;;;;;;;22.50;14.73;;;;;;;19.39;87.63;99384.97;5052948;28;20029;-73
2022/08/12 04:19:33;;;;;;;19.92;14.80;;;;;;;19.44;87.05;99393.91;5052459;28;20024;-72
2022/08/12 04:22:00;;;;;;;22.02;16.67;;;;;;;19.48;87.62;99399.56;5051696;28;20032;-73
2022/08/12 04:24:26;;;;;;;24.83;16.30;;;;;;;19.64;87.47;99396.41;5069351;28;20029;-71
2022/08/12 04:26:52;;;;;;;20.40;15.18;;;;;;;19.78;86.77;99401.31;5049337;28;20036;-72
2022/08/12 04:29:22;;;;;;;21.98;16.13;;;;;;;19.81;85.96;99406.19;5052396;28;20418;-71
2022/08/12 04:31:49;;;;;;;21.25;15.43;;;;;;;19.89;85.61;99404.19;5049116;28;20496;-72
2022/08/12 04:34:15;;;;;;;18.30;12.95;;;;;;;19.96;85.10;99404.25;5061445;28;20045;-73
2022/08/12 04:36:41;;;;;;;21.92;13.40;;;;;;;20.14;85.52;99400.63;5055954;28;20067;-73
2022/08/12 04:39:09;;;;;;;16.38;13.30;;;;;;;20.19;84.50;99395.38;5054722;28;20047;-73
2022/08/12 04:41:39;;;;;;;15.00;11.70;;;;;;;20.31;83.09;99402.72;5071771;28;20028;-73
2022/08/12 04:44:05;;;;;;;12.80;11.52;;;;;;;20.14;83.30;99409.97;5053537;28;20054;-73
2022/08/12 04:46:31;;;;;;;13.07;11.10;;;;;;;20.18;83.41;99407.16;5073361;28;20380;-73
2022/08/12 04:48:57;;;;;;;20.40;11.50;;;;;;;20.22;83.22;99402.28;5048806;28;20024;-75
2022/08/12 04:51:23;;;;;;;15.25;11.77;;;;;;;20.18;82.65;99405.09;5066775;28;20024;-75
2022/08/12 04:53:49;;;;;;;15.45;11.43;;;;;;;20.24;83.40;99405.53;5054595;28;20020;-75
2022/08/12 04:56:16;;;;;;;19.80;12.25;;;;;;;20.25;83.15;99392.16;5068130;28;20523;-75
2022/08/12 04:58:42;;;;;;;17.55;12.52;;;;;;;20.18;83.77;99401.47;5054296;28;20115;-75
2022/08/12 05:01:09;;;;;;;21.77;13.65;;;;;;;20.22;85.43;99390.94;5071750;28;20035;-75
2022/08/12 05:03:35;;;;;;;20.40;13.80;;;;;;;20.48;84.68;99400.28;5064604;28;20032;-75
2022/08/12 05:06:01;;;;;;;19.85;13.55;;;;;;;20.61;85.09;99401.50;5054636;28;20020;-74
2022/08/12 05:08:27;;;;;;;18.77;14.30;;;;;;;20.67;83.41;99401.91;5072569;28;20038;-75
2022/08/12 05:10:53;;;;;;;14.27;10.45;;;;;;;20.72;80.78;99406.38;5055854;28;20133;-75
2022/08/12 05:13:36;;;;;;;13.90;11.30;;;;;;;20.81;79.62;99417.31;5052436;28;20040;-74
2022/08/12 05:16:02;;;;;;;14.23;10.95;;;;;;;20.79;79.84;99412.06;5072968;28;20059;-75
2022/08/12 05:18:27;;;;;;;15.85;11.30;;;;;;;20.82;80.02;99419.81;5068184;28;20122;-72
2022/08/12 05:20:53;;;;;;;15.82;12.05;;;;;;;20.87;80.69;99413.69;5052210;28;20040;-73
2022/08/12 05:23:21;;;;;;;19.45;14.93;;;;;;;20.78;81.44;99418.97;5053636;28;20059;-73
2022/08/12 05:25:48;;;;;;;20.05;13.75;;;;;;;20.75;80.69;99416.91;5073087;28;20107;-74
2022/08/12 05:28:15;;;;;;;19.77;12.30;;;;;;;20.79;80.83;99422.63;5072677;28;20043;-75
2022/08/12 05:30:42;;;;;;;13.13;11.70;;;;;;;20.81;81.77;99423.00;5054741;28;20037;-74
2022/08/12 05:33:10;;;;;;;12.93;10.05;;;;;;;20.80;79.98;99425.06;5054605;28;20032;-74
2022/08/12 05:35:41;;;;;;;17.30;11.18;;;;;;;21.01;80.73;99420.63;5049089;28;20553;-74
2022/08/12 05:41:01;;;;;;;16.05;12.05;;;;;;;21.07;79.31;99424.66;5049907;28;20039;-73
2022/08/12 05:43:27;;;;;;;12.02;9.90;;;;;;;21.30;78.21;99423.41;5050568;28;20060;-74
2022/08/12 05:45:53;;;;;;;12.35;10.15;;;;;;;21.48;77.24;99419.69;5042377;28;20025;-73
2022/08/12 05:48:20;;;;;;;10.50;9.50;;;;;;;21.60;76.20;99420.06;5048778;28;20033;-73
2022/08/12 05:50:47;;;;;;;10.60;9.10;;;;;;;21.72;76.09;99412.31;5050839;28;20028;-73
2022/08/12 05:53:12;;;;;;;13.52;9.85;;;;;;;21.90;75.38;99417.09;5049108;28;20116;-71
2022/08/12 05:55:39;;;;;;;14.50;9.43;;;;;;;22.05;74.68;99421.53;5041702;28;20440;-74
2022/08/12 05:58:06;;;;;;;13.98;10.25;;;;;;;21.99;75.26;99426.84;5048833;28;20029;-75
2022/08/12 06:00:33;;;;;;;14.85;9.35;;;;;;;21.79;73.73;99420.03;5047109;28;20036;-74
2022/08/12 06:03:02;;;;;;;14.60;10.70;;;;;;;22.03;75.49;99423.97;5050426;28;20550;-72
2022/08/12 06:05:34;;;;;;;17.02;10.00;;;;;;;21.92;73.31;99415.47;5040893;28;20511;-73
2022/08/12 06:08:02;;;;;;;12.50;11.23;;;;;;;21.95;74.58;99417.50;5038376;28;20048;-74
2022/08/12 06:10:28;;;;;;;12.93;10.32;;;;;;;21.98;75.30;99415.84;5050387;28;20476;-74
2022/08/12 06:12:57;;;;;;;12.00;10.60;;;;;;;22.00;73.41;99417.06;5050270;28;20044;-75
2022/08/12 06:15:23;;;;;;;13.07;11.27;;;;;;;22.24;72.82;99417.34;5050515;28;20170;-75
2022/08/12 06:17:48;;;;;;;15.38;11.15;;;;;;;22.26;73.41;99414.06;5046955;28;20484;-75
2022/08/12 06:20:15;;;;;;;11.32;9.98;;;;;;;22.43;70.83;99424.53;5041526;28;20114;-74
2022/08/12 06:22:46;;;;;;;13.73;10.27;;;;;;;22.65;70.39;99417.91;5046141;28;20427;-76
2022/08/12 06:25:17;;;;;;;13.32;10.52;;;;;;;22.86;70.81;99417.72;5051051;28;20029;-74
2022/08/12 06:27:47;;;;;;;23.40;10.18;;;;;;;23.07;69.83;99421.63;5047736;28;20114;-73
2022/08/12 06:30:15;;;;;;;13.38;10.82;;;;;;;22.99;68.41;99405.78;5048186;28;20024;-71
2022/08/12 06:32:42;;;;;;;13.63;11.00;;;;;;;22.98;69.22;99413.53;5042854;28;20419;-71
2022/08/12 06:35:11;;;;;;;13.48;10.07;;;;;;;22.80;67.82;99407.97;5047810;28;20045;-75
2022/08/12 06:37:41;;;;;;;14.45;9.73;;;;;;;22.95;66.22;99420.06;5050882;28;20404;-75
2022/08/12 06:40:08;;;;;;;;;;;;;;;23.12;65.64;99415.44;5052176;28;20033;-75
2022/08/12 06:42:51;;;;;;;11.45;10.43;;;;;;;23.42;67.44;99416.78;5049148;28;19942;-75
2022/08/12 06:45:22;;;;;;;14.05;12.65;;;;;;;23.70;66.86;99419.72;5049737;28;20050;-75
2022/08/12 06:47:48;;;;;;;12.02;8.38;;;;;;;23.76;63.03;99409.47;5049131;28;20029;-76
2022/08/12 06:50:17;;;;;;;14.35;8.65;;;;;;;23.77;63.05;99418.81;5050597;28;20055;-75
2022/08/12 06:52:45;;;;;;;15.20;8.60;;;;;;;23.69;63.46;99413.22;5050897;28;20419;-74
2022/08/12 06:55:14;;;;;;;10.40;8.52;;;;;;;23.77;63.52;99418.81;5049528;28;20029;-73
2022/08/12 06:57:54;;;;;;;9.57;8.00;;;;;;;23.85;63.07;99411.78;5051163;28;20104;-71
2022/08/12 07:00:24;;;;;;;10.33;7.07;;;;;;;23.77;62.16;99410.25;5050692;28;20477;-74
2022/08/12 07:02:51;;;;;;;8.10;7.20;;;;;;;24.01;63.07;99407.50;5050698;28;20459;-74
2022/08/12 07:05:24;;;;;;;7.90;7.15;;;;;;;24.02;62.09;99406.28;5048528;28;20023;-75
2022/08/12 07:08:12;;;;;;;8.65;7.85;;;;;;;24.15;60.91;99407.34;5050911;28;20562;-74
2022/08/12 07:10:44;;;;;;;10.27;8.43;;;;;;;24.22;61.61;99404.38;5035059;28;20035;-75
2022/08/12 07:13:10;;;;;;;8.80;7.25;;;;;;;24.19;62.66;99413.81;5048679;28;20835;-73
2022/08/12 07:15:36;;;;;;;16.83;8.10;;;;;;;23.73;62.56;99409.50;5050294;28;20028;-73
2022/08/12 07:20:29;;;;;;;9.23;8.10;;;;;;;23.49;63.70;99404.50;5039703;28;20036;-71
2022/08/12 07:22:55;;;;;;;8.27;7.55;;;;;;;23.28;63.61;99403.50;5041096;28;20032;-72
2022/08/12 07:25:35;;;;;;;11.25;8.23;;;;;;;23.33;64.20;99399.38;5049374;28;20107;-73
2022/08/12 07:28:07;;;;;;;10.57;7.95;;;;;;;23.24;65.34;99401.88;5037266;28;20037;-73
2022/08/12 07:30:37;;;;;;;13.50;9.02;;;;;;;23.41;64.17;99395.19;5049757;28;20053;-71
2022/08/12 07:33:04;;;;;;;10.98;9.23;;;;;;;23.43;65.19;99400.47;5050194;28;20384;-72
2022/08/12 07:35:31;;;;;;;11.00;9.90;;;;;;;23.23;66.66;99395.38;5041979;28;20195;-71
2022/08/12 07:37:59;;;;;;;11.85;10.20;;;;;;;23.32;66.23;99383.47;5049800;28;20025;-73
2022/08/12 07:40:26;;;;;;;14.02;9.93;;;;;;;23.58;65.99;99380.31;5045341;28;20078;-73
2022/08/12 07:48:07;;;;;;;13.57;8.75;;;;;;;24.00;62.40;99383.03;5039738;28;20049;-74
2022/08/12 07:50:32;;;;;;;16.20;9.45;;;;;;;24.18;63.83;99383.63;5026897;28;20095;-76
2022/08/12 07:52:58;;;;;;;11.85;8.82;;;;;;;24.59;61.66;99384.63;5043753;28;20075;-73
2022/08/12 07:55:24;;;;;;;11.63;9.50;;;;;;;24.80;58.57;99383.47;5027230;28;20032;-75
2022/08/12 07:57:54;;;;;;;12.13;7.60;;;;;;;24.65;56.87;99390.66;5026538;28;20043;-74
2022/08/12 08:00:20;;;;;;;8.85;8.05;;;;;;;24.48;58.10;99386.84;5039570;28;20479;-73
2022/08/12 08:02:45;;;;;;;11.07;7.82;;;;;;;24.50;58.66;99388.03;5048411;28;20032;-73
2022/08/12 08:05:11;;;;;;;8.18;7.15;;;;;;;24.52;58.38;99382.69;5050489;28;20048;-72
2022/08/12 08:07:37;;;;;;;11.90;8.20;;;;;;;24.43;58.30;99375.88;5050270;28;20039;-73
2022/08/12 08:10:06;;;;;;;14.10;8.27;;;;;;;24.28;57.29;99381.03;5053758;28;20025;-72
2022/08/12 08:15:16;;;;;;;10.77;8.20;;;;;;;23.97;60.96;99384.72;5054899;28;20051;-72
2022/08/12 08:18:02;;;;;;;11.80;7.40;;;;;;;24.07;59.97;99383.78;5054517;28;20063;-73
2022/08/12 08:20:34;;;;;;;10.88;8.35;;;;;;;23.85;60.73;99374.66;5044095;28;20376;-71
2022/08/12 08:23:06;;;;;;;10.63;9.52;;;;;;;23.67;61.91;99384.28;5034585;28;20033;-73
2022/08/12 08:25:37;;;;;;;10.13;9.00;;;;;;;23.54;61.73;99366.13;5033184;28;20560;-71
2022/08/12 08:28:05;;;;;;;11.60;8.48;;;;;;;23.44;61.98;99364.19;5053892;28;20127;-72
2022/08/12 08:30:33;;;;;;;17.52;10.10;;;;;;;23.56;61.83;99361.56;5035539;28;20059;-73
2022/08/12 08:32:58;;;;;;;12.73;8.40;;;;;;;23.38;62.35;99364.66;5051163;28;20079;-72
2022/08/12 08:35:24;;;;;;;11.43;9.48;;;;;;;23.61;62.48;99357.44;5049262;28;20053;-72
2022/08/12 08:37:51;;;;;;;15.93;9.50;;;;;;;23.69;61.68;99358.97;5053803;28;20477;-71
2022/08/12 08:43:03;;;;;;;11.00;8.15;;;;;;;24.01;61.54;99361.78;5052966;28;20039;-73
2022/08/12 08:45:29;;;;;;;18.35;9.35;;;;;;;23.95;61.30;99356.56;5053960;28;20021;-72
2022/08/12 08:47:55;;;;;;;12.85;9.52;;;;;;;24.08;60.41;99361.72;5050260;28;20061;-72
2022/08/12 08:50:20;;;;;;;11.43;8.48;;;;;;;24.22;60.45;99350.06;5054170;28;20024;-71
2022/08/12 08:52:47;;;;;;;11.30;8.25;;;;;;;24.04;59.28;99346.69;5052713;28;20032;-70
2022/08/12 08:55:15;;;;;;;14.82;7.15;;;;;;;24.33;59.93;99354.81;5057445;28;20025;-73
2022/08/12 08:57:43;;;;;;;11.13;7.53;;;;;;;24.43;58.38;99350.97;5047957;28;20050;-71
2022/08/12 09:00:18;;;;;;;9.63;7.43;;;;;;;24.41;57.81;99347.75;5049557;28;20021;-71
2022/08/12 09:02:45;;;;;;;8.70;7.28;;;;;;;24.52;56.27;99347.56;5017080;28;20025;-72
2022/08/12 09:05:11;;;;;;;11.45;7.78;;;;;;;24.44;57.07;99337.50;5052560;28;20025;-71
2022/08/12 09:07:45;;;;;;;15.63;8.20;;;;;;;24.75;57.96;99332.47;5025074;28;20111;-71
2022/08/12 09:10:12;;;;;;;16.63;7.63;;;;;;;24.93;56.43;99332.19;5053045;28;20701;-74
2022/08/12 09:15:24;;;;;;;10.55;8.05;;;;;;;24.87;54.85;99328.19;5036965;28;20020;-72
2022/08/12 09:17:53;;;;;;;10.35;8.45;;;;;;;25.05;55.80;99335.66;5052774;28;20040;-72
2022/08/12 09:20:20;;;;;;;13.07;8.45;;;;;;;25.39;54.31;99328.81;5053200;28;20024;-73
2022/08/12 09:22:46;;;;;;;10.38;9.13;;;;;;;25.23;52.97;99329.56;5049714;28;20474;-72
2022/08/12 09:25:11;;;;;;;8.60;7.70;;;;;;;25.42;53.69;99319.38;5047709;28;20053;-73
2022/08/12 09:27:37;;;;;;;20.67;10.35;;;;;;;25.87;53.75;99320.88;5044340;28;20390;-72
2022/08/12 09:30:03;;;;;;;10.05;7.85;;;;;;;25.85;52.12;99323.38;5053343;28;20441;-71
2022/08/12 09:32:28;;;;;;;11.45;8.05;;;;;;;25.71;51.96;99320.84;5053323;28;20032;-74
2022/08/12 09:34:54;;;;;;;10.23;8.40;;;;;;;25.54;51.55;99326.50;5046378;28;20108;-73
2022/08/12 09:37:19;;;;;;;15.55;11.68;;;;;;;25.86;51.48;99319.25;5050715;28;20086;-72
2022/08/12 09:39:45;;;;;;;7.53;5.70;;;;;;;25.98;48.35;99311.22;5035350;28;20028;-76
2022/08/12 09:47:44;;;;;;;6.93;5.50;;;;;;;26.30;47.35;99309.63;5051964;28;20390;-74
2022/08/12 09:50:09;;;;;;;6.63;5.38;;;;;;;26.19;46.15;99309.91;5051472;28;20095;-72
2022/08/12 09:52:35;;;;;;;5.05;4.38;;;;;;;26.27;45.29;99302.75;5031018;28;20495;-74
2022/08/12 09:55:01;;;;;;;7.85;5.85;;;;;;;26.80;46.49;99303.88;5048264;28;20032;-72
2022/08/12 09:57:26;;;;;;;5.28;4.85;;;;;;;26.78;44.59;99290.78;5028030;28;20036;-72
2022/08/12 09:59:53;;;;;;;30.00;27.40;;;;;;;26.95;45.37;99287.91;5052420;28;20024;-73
2022/08/12 10:02:18;;;;;;;6.82;5.35;;;;;;;26.63;45.52;99289.56;5033382;28;20052;-72
2022/08/12 10:04:47;;;;;;;6.57;5.63;;;;;;;26.93;45.26;99284.69;5052443;28;20446;-74
2022/08/12 10:07:14;;;;;;;8.35;5.50;;;;;;;26.58;43.99;99288.03;5052126;28;20025;-74
2022/08/12 10:09:40;;;;;;;7.63;4.97;;;;;;;26.43;44.80;99283.94;5049611;28;20036;-73
2022/08/12 10:14:50;;;;;;;19.17;13.82;;;;;;;27.35;43.45;99281.03;5040485;28;20043;-74
2022/08/12 10:17:21;;;;;;;11.30;7.47;;;;;;;27.37;42.07;99272.78;5051417;28;20033;-74
2022/08/12 10:19:47;;;;;;;19.83;17.50;;;;;;;27.36;41.62;99267.47;5052882;28;20060;-74
2022/08/12 10:22:14;;;;;;;12.00;8.55;;;;;;;27.52;42.19;99263.72;5031890;28;20029;-73
2022/08/12 10:24:40;;;;;;;7.10;4.53;;;;;;;27.50;42.94;99269.13;5051789;28;20025;-74
2022/08/12 10:29:51;;;;;;;8.77;5.50;;;;;;;27.81;42.10;99266.53;5050402;28;20091;-73
2022/08/12 10:32:22;;;;;;;9.30;4.63;;;;;;;27.73;40.77;99265.94;5052927;28;20549;-75
2022/08/12 10:34:49;;;;;;;7.32;5.28;;;;;;;27.82;41.32;99255.84;5034811;28;20025;-74
2022/08/12 10:37:15;;;;;;;5.97;5.20;;;;;;;27.91;42.50;99258.81;5034248;28;20025;-75
2022/08/12 10:39:41;;;;;;;5.07;4.68;;;;;;;28.17;41.48;99248.13;5052324;28;20422;-74
2022/08/12 10:45:02;;;;;;;6.93;5.13;;;;;;;27.38;42.08;99256.34;5052279;28;20032;-72
2022/08/12 10:47:29;;;;;;;7.40;6.38;;;;;;;27.66;40.67;99248.94;5051766;28;20124;-73
2022/08/12 10:49:57;;;;;;;98.53;88.72;;;;;;;27.88;41.23;99242.50;5032865;28;20021;-73
2022/08/12 10:52:23;;;;;;;13.38;8.75;;;;;;;28.11;40.68;99238.44;5021775;28;20116;-72
2022/08/12 10:54:49;;;;;;;10.52;7.45;;;;;;;28.56;40.22;99227.09;5051809;28;20028;-72
2022/08/12 10:57:16;;;;;;;26.50;24.10;;;;;;;28.61;40.83;99238.03;5051681;28;20025;-71
2022/08/12 10:59:42;;;;;;;47.33;42.35;;;;;;;28.78;40.36;99240.72;5051683;28;20021;-71
2022/08/12 11:02:15;;;;;;;14.45;11.23;;;;;;;28.75;38.14;99222.31;5029549;28;20574;-71
2022/08/12 11:04:42;;;;;;;39.05;35.35;;;;;;;28.59;38.65;99232.72;5049235;28;20418;-72
2022/08/12 11:07:08;;;;;;;10.65;9.30;;;;;;;28.63;38.52;99231.78;5048470;28;20049;-73
2022/08/12 11:09:34;;;;;;;24.15;8.15;;;;;;;28.79;39.13;99207.78;5046646;28;20031;-73
2022/08/12 11:12:05;;;;;;;22.95;20.67;;;;;;;29.17;39.75;99206.78;5029786;28;20514;-73
2022/08/12 11:14:36;;;;;;;10.60;9.70;;;;;;;29.39;36.42;99203.91;5048592;28;20032;-73
2022/08/12 11:17:06;;;;;;;7.00;6.40;;;;;;;29.33;36.38;99202.91;5048595;28;20021;-73
2022/08/12 11:19:38;;;;;;;105.25;94.65;;;;;;;29.39;36.10;99200.22;5048840;28;20029;-73
2022/08/12 11:22:04;;;;;;;29.70;26.85;;;;;;;29.61;36.39;99203.03;5048721;28;20107;-73
2022/08/12 11:24:30;;;;;;;79.70;71.30;;;;;;;29.65;36.81;99205.78;5048344;28;20039;-72
2022/08/12 11:26:57;;;;;;;8.23;5.78;;;;;;;29.62;35.64;99203.88;5048688;28;20458;-73
2022/08/12 11:29:25;;;;;;;59.17;49.95;;;;;;;29.49;35.25;99192.44;5047021;28;20040;-72
2022/08/12 11:31:51;;;;;;;10.15;7.15;;;;;;;29.49;35.13;99198.19;5048570;28;20071;-72
2022/08/12 11:34:17;;;;;;;15.07;13.48;;;;;;;29.76;35.81;99197.50;5048458;28;20036;-72
2022/08/12 11:36:56;;;;;;;7.03;6.32;;;;;;;29.40;35.39;99176.72;5048334;28;20025;-72
2022/08/12 11:39:23;;;;;;;6.10;5.40;;;;;;;29.52;36.89;99182.88;5048565;28;20051;-72
2022/08/12 11:41:49;;;;;;;12.60;4.93;;;;;;;29.80;36.35;99182.97;5048515;28;20592;-72
2022/08/12 11:44:15;;;;;;;4.50;4.10;;;;;;;30.00;37.11;99168.13;5041304;28;20151;-71
2022/08/12 11:46:41;;;;;;;7.25;4.93;;;;;;;29.16;36.35;99175.63;5037744;28;20049;-74
2022/08/12 11:49:08;;;;;;;5.95;4.72;;;;;;;29.55;36.71;99171.19;5026641;28;20037;-72
2022/08/12 11:51:35;;;;;;;4.75;4.32;;;;;;;29.40;35.96;99173.81;5037766;28;20036;-73
2022/08/12 11:54:01;;;;;;;5.47;4.50;;;;;;;29.08;35.64;99164.38;5049566;28;20021;-72
2022/08/12 11:56:27;;;;;;;4.68;4.25;;;;;;;29.48;35.56;99165.72;5032220;28;20036;-72
2022/08/12 11:58:53;;;;;;;7.72;4.45;;;;;;;29.74;35.19;99171.25;5050631;28;20434;-72
2022/08/12 12:01:18;;;;;;;5.68;4.00;;;;;;;29.92;35.15;99152.41;5050850;28;20056;-73
2022/08/12 12:03:44;;;;;;;4.88;4.05;;;;;;;29.87;34.56;99150.16;5049005;28;20033;-72
2022/08/12 12:06:09;;;;;;;5.20;4.70;;;;;;;30.00;34.91;99152.91;5046591;28;20040;-73
2022/08/12 12:08:35;;;;;;;4.70;4.22;;;;;;;30.04;35.13;99150.69;5050634;28;20087;-73
2022/08/12 12:11:01;;;;;;;4.22;3.83;;;;;;;30.18;34.40;99143.50;5046945;28;20032;-72
2022/08/12 12:13:26;;;;;;;6.45;4.05;;;;;;;30.50;34.23;99144.97;5032655;28;20163;-72
2022/08/12 12:15:52;;;;;;;10.63;4.60;;;;;;;30.48;34.22;99144.66;5050522;28;20355;-72
2022/08/12 12:18:23;;;;;;;9.07;4.72;;;;;;;30.32;31.83;99142.88;5050441;28;20450;-73
2022/08/12 12:20:50;;;;;;;5.30;4.55;;;;;;;30.33;32.66;99132.94;5032733;28;20032;-73
2022/08/12 12:23:16;;;;;;;8.07;4.70;;;;;;;30.27;33.84;99123.31;5050233;28;20455;-72
2022/08/12 12:25:41;;;;;;;5.55;3.95;;;;;;;30.42;31.61;99122.69;5050547;28;20196;-73
2022/08/12 12:28:07;;;;;;;8.02;4.57;;;;;;;30.52;30.85;99121.38;5050575;28;20021;-73
2022/08/12 12:30:34;;;;;;;5.82;4.50;;;;;;;30.72;31.01;99117.22;5050329;28;20415;-73
2022/08/12 12:32:59;;;;;;;7.20;4.25;;;;;;;30.85;30.00;99114.16;5032624;28;20502;-73
2022/08/12 12:35:25;;;;;;;10.88;4.15;;;;;;;30.79;30.79;99111.13;5050325;28;20108;-73
2022/08/12 12:38:08;;;;;;;4.85;4.40;;;;;;;31.12;31.28;99106.69;5050346;28;20037;-73
2022/08/12 12:40:35;;;;;;;10.73;4.93;;;;;;;30.81;31.17;99108.56;5049993;28;20105;-73
2022/08/12 12:43:02;;;;;;;10.13;4.63;;;;;;;30.63;32.01;99113.06;5031927;28;20025;-73
2022/08/12 12:45:29;;;;;;;4.82;4.43;;;;;;;30.04;32.48;99111.13;5050276;28;20028;-73
2022/08/12 12:47:54;;;;;;;7.60;4.60;;;;;;;30.49;32.29;99102.16;5048892;28;20052;-73
2022/08/12 12:50:20;;;;;;;6.32;4.30;;;;;;;30.78;32.42;99100.88;5050355;28;20040;-74
2022/08/12 12:52:46;;;;;;;6.00;4.10;;;;;;;30.67;32.49;99096.41;5032995;28;20404;-72
2022/08/12 12:55:13;;;;;;;5.32;3.55;;;;;;;30.94;33.09;99093.91;5053725;28;20028;-73
2022/08/12 12:57:39;;;;;;;4.88;4.47;;;;;;;30.89;33.42;99091.69;5054079;28;20029;-73
2022/08/12 13:00:16;;;;;;;4.97;3.78;;;;;;;31.17;32.47;99092.41;5053931;28;20131;-74
2022/08/12 13:02:54;;;;;;;5.72;3.88;;;;;;;30.94;33.57;99088.97;5053908;28;20028;-74
2022/08/12 13:05:34;;;;;;;4.57;4.18;;;;;;;30.98;31.87;99083.00;5053671;28;20073;-73
2022/08/12 13:08:02;;;;;;;6.38;4.57;;;;;;;30.54;31.70;99084.22;5053850;28;20487;-72
2022/08/12 13:10:29;;;;;;;7.15;4.32;;;;;;;30.48;32.69;99086.13;5035752;28;20112;-73
2022/08/12 13:12:55;;;;;;;4.95;3.95;;;;;;;30.81;33.19;99074.72;5035321;28;20033;-73
2022/08/12 13:15:21;;;;;;;5.88;4.13;;;;;;;30.90;31.45;99071.00;5035793;28;20051;-73
2022/08/12 13:17:49;;;;;;;6.13;4.28;;;;;;;30.80;31.72;99073.13;5035712;28;20093;-73
2022/08/12 13:20:20;;;;;;;4.82;4.40;;;;;;;30.75;32.08;99082.44;5034656;28;20456;-73
2022/08/12 13:22:46;;;;;;;8.40;4.88;;;;;;;30.36;32.40;99074.28;5048543;28;20407;-73
2022/08/12 13:25:14;;;;;;;4.95;4.18;;;;;;;30.31;32.06;99077.03;5042589;28;20048;-73
2022/08/12 13:27:46;;;;;;;6.53;4.78;;;;;;;30.53;32.19;99085.50;5027185;28;20037;-73